RELACIONES PÚBLICAS

27/12/2017PERSPECTIVAS CLIMÁTICAS PARA ENERO – FEBRERO - MARZO 2017  Se adjunta el Informe de Perspectivas Climáticas para el trimestre Enero, Febrero y Marzo del 2017.http://meteorologia.gub.uy/ServCli/tendenciasClimaticas

Productos aeronáuticos

  • SIGMET
  • METAR / SPECI
  • TAF
  • AIREP
  • Aviso de aeródromo
  • Pronárea
  • Carta superficie

Mensajes METAR de la última hora

SUMU 190000Z 08008KT CAVOK 22/16 Q1013 NOSIG

Mensajes METAR de la última hora - Internacionales


Argentina
SAAR 190000Z 07002KT CAVOK 27/21 Q1011
SABE 190000Z 11007KT CAVOK 25/20 Q1012
SACO 190000Z 36005KT CAVOK 24/21 Q1013
SAEZ 190000Z 07008KT CAVOK 24/19 Q1011
SAME 190000Z 14003KT CAVOK 31/11 Q1010
Bolivia
SLLP 190000Z 07005KT 9999 FEW015 FEW017CB BKN200 08/03 Q1036
Brasil
SBBR 190000Z 24003KT CAVOK 21/20 Q1018
SBFI 190000Z 18002KT CAVOK 26/22 Q1009
SBFL 190000Z 17011KT 9999 FEW030 BKN050 26/23 Q1012
SBGR 190000Z 06004KT 9999 FEW015 BKN070 22/21 Q1016
SBPA 190000Z 12008KT 9999 BKN035 25/19 Q1014
SBRJ 190000Z 01005KT CAVOK 30/25 Q1010
SBSP 190000Z 30003KT 7000 SCT008 BKN010 BKN070 22/19 Q1017
Colombia
SKBO 190000Z 36003KT 2500 -DZ BKN015 12/11 A3031
Chile
SCCI 190000Z 24010KT 9999 -SHRA FEW020 BKN040 11/07 Q0997 NOSIG
SCEL 190000Z 18012KT 8000 NSC 28/03 Q1012 NOSIG
Ecuador
SEQM 190000Z 02006KT 9999 BKN030 16/11 Q1025 NOSIG RMK A3026
EEUU
KMIA 182353Z 13005KT 10SM FEW055 BKN250 24/17 A3013 RMK AO2 SLP201 T02390172 10283 20239 51007
KDCA 182352Z 32013KT 10SM FEW046 10/02 A3006 RMK AO2 SLP180 T01000022 10156 20100 51028
KIAD 182352Z 34008KT 10SM FEW038 08/01 A3007 RMK AO2 SLP182 T00830011 10139 20083 52026
KJFK 182351Z 35010KT 10SM SCT012 BKN024 OVC065 06/02 A3004 RMK AO2 SLP173 T00560022 10056 20050 51028
KLGA 182351Z 34008KT 9SM OVC012 06/03 A3004 RMK AO2 SLP170 T00560028 10072 20056 51029 $
KJFK 182347Z 35010KT 10SM SCT012 BKN024 OVC065 06/02 A3004 RMK AO2
España
LEBL 190000Z 33012KT CAVOK 02/M08 Q1022 NOSIG
LEMD 190000Z 35008KT CAVOK M02/M10 Q1020 NOSIG
LEBL 182330Z 33012KT CAVOK 03/M08 Q1022 NOSIG
LEMD 182330Z 33007KT CAVOK M02/M11 Q1020 NOSIG
Francia
LFPO 190000Z 03007KT CAVOK M03/M08 Q1033 NOSIG
LFPO 182330Z 04007KT 360V060 CAVOK M03/M08 Q1033 NOSIG
Inglaterra
EGLL 182350Z AUTO 36003KT 9000 NCD 00/M03 Q1038 NOSIG
EGLL 182320Z AUTO 35002KT 9999 NCD 01/M03 Q1038
Panamá
MPTO 190000Z 05006KT 9999 FEW020 26/21 Q1010 NOSIG
Paraguay
SGAS 190000Z 19008KT CAVOK 30/22 Q1008

* Datos extraidos del Text DataServer de la NOAA (NOAA TEXT DATA SERVER)

Instituto Uruguayo de Meteorología

Dr. Javier Barrios Amorín 1488 - CP 11200
1895 int 108

Montevideo - Uruguay